sensor_id;sensor_type;location;lat;lon;timestamp;P1;durP1;ratioP1;P2;durP2;ratioP2
16440;SDS011;8330;-33.858;151.184;2023-12-29T00:00:36;6.47;;;1.40;;
16440;SDS011;8330;-33.858;151.184;2023-12-29T00:03:07;4.70;;;1.38;;
16440;SDS011;8330;-33.858;151.184;2023-12-29T00:05:38;8.30;;;1.70;;
16440;SDS011;8330;-33.858;151.184;2023-12-29T00:08:09;7.97;;;1.80;;
16440;SDS011;8330;-33.858;151.184;2023-12-29T00:10:39;5.68;;;1.42;;
16440;SDS011;8330;-33.858;151.184;2023-12-29T00:13:12;6.57;;;1.40;;
16440;SDS011;8330;-33.858;151.184;2023-12-29T00:15:49;6.22;;;1.60;;
16440;SDS011;8330;-33.858;151.184;2023-12-29T00:18:22;7.75;;;1.50;;
16440;SDS011;8330;-33.858;151.184;2023-12-29T00:20:52;7.25;;;1.30;;
16440;SDS011;8330;-33.858;151.184;2023-12-29T00:23:23;9.30;;;1.48;;
16440;SDS011;8330;-33.858;151.184;2023-12-29T00:25:56;7.25;;;1.42;;
16440;SDS011;8330;-33.858;151.184;2023-12-29T00:28:29;4.60;;;1.50;;
16440;SDS011;8330;-33.858;151.184;2023-12-29T00:31:01;7.10;;;1.67;;
16440;SDS011;8330;-33.858;151.184;2023-12-29T00:33:33;5.25;;;1.48;;
16440;SDS011;8330;-33.858;151.184;2023-12-29T00:36:04;8.00;;;1.27;;
16440;SDS011;8330;-33.858;151.184;2023-12-29T00:38:35;6.55;;;1.42;;
16440;SDS011;8330;-33.858;151.184;2023-12-29T00:41:06;6.32;;;1.58;;
16440;SDS011;8330;-33.858;151.184;2023-12-29T00:43:40;4.97;;;1.40;;
16440;SDS011;8330;-33.858;151.184;2023-12-29T00:46:11;6.35;;;1.60;;
16440;SDS011;8330;-33.858;151.184;2023-12-29T00:48:47;10.93;;;1.80;;
16440;SDS011;8330;-33.858;151.184;2023-12-29T00:51:18;7.70;;;1.70;;
16440;SDS011;8330;-33.858;151.184;2023-12-29T00:53:49;7.13;;;1.88;;
16440;SDS011;8330;-33.858;151.184;2023-12-29T00:56:20;6.47;;;1.70;;
16440;SDS011;8330;-33.858;151.184;2023-12-29T00:58:52;7.57;;;1.50;;
16440;SDS011;8330;-33.858;151.184;2023-12-29T01:01:23;6.45;;;1.48;;
16440;SDS011;8330;-33.858;151.184;2023-12-29T01:03:54;6.78;;;1.60;;
16440;SDS011;8330;-33.858;151.184;2023-12-29T01:06:25;9.20;;;1.67;;
16440;SDS011;8330;-33.858;151.184;2023-12-29T01:08:55;8.05;;;1.80;;
16440;SDS011;8330;-33.858;151.184;2023-12-29T01:11:27;7.30;;;1.70;;
16440;SDS011;8330;-33.858;151.184;2023-12-29T01:13:59;6.88;;;1.77;;
16440;SDS011;8330;-33.858;151.184;2023-12-29T01:16:30;6.25;;;1.55;;
16440;SDS011;8330;-33.858;151.184;2023-12-29T01:19:01;8.07;;;1.75;;
16440;SDS011;8330;-33.858;151.184;2023-12-29T01:21:32;7.88;;;1.73;;
16440;SDS011;8330;-33.858;151.184;2023-12-29T01:24:06;8.02;;;1.75;;
16440;SDS011;8330;-33.858;151.184;2023-12-29T01:26:37;10.40;;;1.88;;
16440;SDS011;8330;-33.858;151.184;2023-12-29T01:29:10;4.53;;;1.23;;
16440;SDS011;8330;-33.858;151.184;2023-12-29T01:31:40;6.72;;;1.50;;
16440;SDS011;8330;-33.858;151.184;2023-12-29T01:34:11;7.45;;;1.83;;
16440;SDS011;8330;-33.858;151.184;2023-12-29T01:36:42;9.32;;;1.80;;
16440;SDS011;8330;-33.858;151.184;2023-12-29T01:39:13;7.00;;;1.55;;
16440;SDS011;8330;-33.858;151.184;2023-12-29T01:41:44;8.48;;;2.08;;
16440;SDS011;8330;-33.858;151.184;2023-12-29T01:44:23;10.73;;;1.92;;
16440;SDS011;8330;-33.858;151.184;2023-12-29T01:46:55;6.20;;;1.58;;
16440;SDS011;8330;-33.858;151.184;2023-12-29T01:49:28;6.97;;;1.80;;
16440;SDS011;8330;-33.858;151.184;2023-12-29T01:51:59;7.47;;;2.05;;
16440;SDS011;8330;-33.858;151.184;2023-12-29T01:54:31;7.20;;;1.77;;
16440;SDS011;8330;-33.858;151.184;2023-12-29T01:57:04;6.22;;;1.52;;
16440;SDS011;8330;-33.858;151.184;2023-12-29T01:59:38;10.05;;;1.80;;
16440;SDS011;8330;-33.858;151.184;2023-12-29T02:02:09;6.85;;;1.70;;
16440;SDS011;8330;-33.858;151.184;2023-12-29T02:04:41;9.60;;;2.30;;
16440;SDS011;8330;-33.858;151.184;2023-12-29T02:07:13;7.65;;;2.10;;
16440;SDS011;8330;-33.858;151.184;2023-12-29T02:09:44;7.40;;;1.90;;
16440;SDS011;8330;-33.858;151.184;2023-12-29T02:12:17;6.35;;;1.52;;
16440;SDS011;8330;-33.858;151.184;2023-12-29T02:14:50;9.90;;;1.92;;
16440;SDS011;8330;-33.858;151.184;2023-12-29T02:17:21;7.28;;;1.70;;
16440;SDS011;8330;-33.858;151.184;2023-12-29T02:19:55;5.30;;;1.83;;
16440;SDS011;8330;-33.858;151.184;2023-12-29T02:22:26;8.25;;;2.00;;
16440;SDS011;8330;-33.858;151.184;2023-12-29T02:24:58;8.48;;;1.90;;
16440;SDS011;8330;-33.858;151.184;2023-12-29T02:27:36;6.05;;;1.80;;
16440;SDS011;8330;-33.858;151.184;2023-12-29T02:30:16;6.40;;;1.83;;
16440;SDS011;8330;-33.858;151.184;2023-12-29T02:32:52;7.72;;;2.03;;
16440;SDS011;8330;-33.858;151.184;2023-12-29T02:35:38;9.20;;;2.00;;
16440;SDS011;8330;-33.858;151.184;2023-12-29T02:38:11;5.78;;;1.38;;
16440;SDS011;8330;-33.858;151.184;2023-12-29T02:40:44;8.40;;;1.92;;
16440;SDS011;8330;-33.858;151.184;2023-12-29T02:43:16;6.95;;;1.80;;
16440;SDS011;8330;-33.858;151.184;2023-12-29T02:45:47;11.52;;;2.40;;
16440;SDS011;8330;-33.858;151.184;2023-12-29T02:48:17;8.40;;;2.00;;
16440;SDS011;8330;-33.858;151.184;2023-12-29T02:50:48;7.78;;;1.88;;
16440;SDS011;8330;-33.858;151.184;2023-12-29T02:53:19;10.38;;;1.77;;
16440;SDS011;8330;-33.858;151.184;2023-12-29T02:55:52;8.73;;;1.77;;
16440;SDS011;8330;-33.858;151.184;2023-12-29T02:58:22;6.60;;;1.75;;
16440;SDS011;8330;-33.858;151.184;2023-12-29T03:00:53;6.90;;;1.80;;
16440;SDS011;8330;-33.858;151.184;2023-12-29T03:03:24;9.30;;;1.90;;
16440;SDS011;8330;-33.858;151.184;2023-12-29T03:05:57;7.60;;;1.90;;
16440;SDS011;8330;-33.858;151.184;2023-12-29T03:08:28;10.70;;;2.55;;
16440;SDS011;8330;-33.858;151.184;2023-12-29T03:11:00;8.82;;;1.95;;
16440;SDS011;8330;-33.858;151.184;2023-12-29T03:13:31;8.70;;;1.80;;
16440;SDS011;8330;-33.858;151.184;2023-12-29T03:16:02;7.60;;;1.88;;
16440;SDS011;8330;-33.858;151.184;2023-12-29T03:18:33;13.82;;;2.00;;
16440;SDS011;8330;-33.858;151.184;2023-12-29T03:21:06;13.18;;;2.25;;
16440;SDS011;8330;-33.858;151.184;2023-12-29T03:23:36;5.95;;;1.65;;
16440;SDS011;8330;-33.858;151.184;2023-12-29T03:26:09;10.77;;;2.10;;
16440;SDS011;8330;-33.858;151.184;2023-12-29T03:28:40;9.15;;;1.90;;
16440;SDS011;8330;-33.858;151.184;2023-12-29T03:31:14;7.25;;;1.90;;
16440;SDS011;8330;-33.858;151.184;2023-12-29T03:33:45;10.27;;;1.80;;
16440;SDS011;8330;-33.858;151.184;2023-12-29T03:36:16;5.22;;;1.73;;
16440;SDS011;8330;-33.858;151.184;2023-12-29T03:38:47;5.45;;;1.80;;
16440;SDS011;8330;-33.858;151.184;2023-12-29T03:41:19;12.45;;;1.90;;
16440;SDS011;8330;-33.858;151.184;2023-12-29T03:43:50;12.15;;;2.13;;
16440;SDS011;8330;-33.858;151.184;2023-12-29T03:46:22;7.28;;;1.80;;
16440;SDS011;8330;-33.858;151.184;2023-12-29T03:48:53;8.95;;;1.70;;
16440;SDS011;8330;-33.858;151.184;2023-12-29T03:51:27;6.55;;;1.70;;
16440;SDS011;8330;-33.858;151.184;2023-12-29T03:53:58;8.52;;;2.03;;
16440;SDS011;8330;-33.858;151.184;2023-12-29T03:56:31;8.98;;;1.90;;
16440;SDS011;8330;-33.858;151.184;2023-12-29T03:59:02;7.22;;;1.60;;
16440;SDS011;8330;-33.858;151.184;2023-12-29T04:01:33;8.65;;;2.08;;
16440;SDS011;8330;-33.858;151.184;2023-12-29T04:04:04;6.97;;;2.08;;
16440;SDS011;8330;-33.858;151.184;2023-12-29T04:06:35;9.10;;;2.05;;
16440;SDS011;8330;-33.858;151.184;2023-12-29T04:09:06;8.07;;;1.98;;
16440;SDS011;8330;-33.858;151.184;2023-12-29T04:11:38;7.15;;;1.77;;
16440;SDS011;8330;-33.858;151.184;2023-12-29T04:14:09;10.43;;;2.08;;
16440;SDS011;8330;-33.858;151.184;2023-12-29T04:16:40;7.50;;;1.80;;
16440;SDS011;8330;-33.858;151.184;2023-12-29T04:19:11;8.32;;;1.98;;
16440;SDS011;8330;-33.858;151.184;2023-12-29T04:21:42;6.28;;;1.63;;
16440;SDS011;8330;-33.858;151.184;2023-12-29T04:24:13;7.53;;;2.03;;
16440;SDS011;8330;-33.858;151.184;2023-12-29T04:26:46;9.35;;;2.08;;
16440;SDS011;8330;-33.858;151.184;2023-12-29T04:29:17;9.55;;;2.10;;
16440;SDS011;8330;-33.858;151.184;2023-12-29T04:31:47;7.20;;;1.88;;
16440;SDS011;8330;-33.858;151.184;2023-12-29T04:34:18;10.32;;;2.05;;
16440;SDS011;8330;-33.858;151.184;2023-12-29T04:36:49;4.68;;;1.60;;
16440;SDS011;8330;-33.858;151.184;2023-12-29T04:39:20;8.63;;;1.90;;
16440;SDS011;8330;-33.858;151.184;2023-12-29T04:41:53;6.80;;;1.77;;
16440;SDS011;8330;-33.858;151.184;2023-12-29T04:44:23;7.78;;;1.75;;
16440;SDS011;8330;-33.858;151.184;2023-12-29T04:46:54;7.00;;;1.90;;
16440;SDS011;8330;-33.858;151.184;2023-12-29T04:49:25;6.60;;;1.80;;
16440;SDS011;8330;-33.858;151.184;2023-12-29T04:51:56;8.50;;;1.90;;
16440;SDS011;8330;-33.858;151.184;2023-12-29T04:54:27;7.32;;;1.60;;
16440;SDS011;8330;-33.858;151.184;2023-12-29T04:57:00;6.32;;;1.80;;
16440;SDS011;8330;-33.858;151.184;2023-12-29T04:59:30;6.93;;;1.77;;
16440;SDS011;8330;-33.858;151.184;2023-12-29T05:02:01;10.57;;;1.70;;
16440;SDS011;8330;-33.858;151.184;2023-12-29T05:04:32;6.53;;;1.52;;
16440;SDS011;8330;-33.858;151.184;2023-12-29T05:07:04;7.28;;;1.80;;
16440;SDS011;8330;-33.858;151.184;2023-12-29T05:09:37;4.72;;;1.40;;
16440;SDS011;8330;-33.858;151.184;2023-12-29T05:12:10;7.45;;;1.95;;
16440;SDS011;8330;-33.858;151.184;2023-12-29T05:14:41;6.88;;;1.65;;
16440;SDS011;8330;-33.858;151.184;2023-12-29T05:17:12;8.25;;;1.50;;
16440;SDS011;8330;-33.858;151.184;2023-12-29T05:19:42;5.32;;;1.60;;
16440;SDS011;8330;-33.858;151.184;2023-12-29T05:22:13;6.47;;;1.70;;
16440;SDS011;8330;-33.858;151.184;2023-12-29T05:24:44;7.53;;;1.92;;
16440;SDS011;8330;-33.858;151.184;2023-12-29T05:27:17;7.03;;;1.67;;
16440;SDS011;8330;-33.858;151.184;2023-12-29T05:29:48;8.93;;;2.10;;
16440;SDS011;8330;-33.858;151.184;2023-12-29T05:32:18;7.53;;;1.70;;
16440;SDS011;8330;-33.858;151.184;2023-12-29T05:34:49;5.88;;;1.90;;
16440;SDS011;8330;-33.858;151.184;2023-12-29T05:37:21;5.72;;;1.73;;
16440;SDS011;8330;-33.858;151.184;2023-12-29T05:39:51;4.32;;;1.48;;
16440;SDS011;8330;-33.858;151.184;2023-12-29T05:42:24;5.20;;;1.58;;
16440;SDS011;8330;-33.858;151.184;2023-12-29T05:44:55;4.63;;;1.20;;
16440;SDS011;8330;-33.858;151.184;2023-12-29T05:47:26;8.52;;;1.70;;
16440;SDS011;8330;-33.858;151.184;2023-12-29T05:49:57;9.68;;;1.98;;
16440;SDS011;8330;-33.858;151.184;2023-12-29T05:52:27;7.57;;;1.73;;
16440;SDS011;8330;-33.858;151.184;2023-12-29T05:54:58;5.32;;;1.50;;
16440;SDS011;8330;-33.858;151.184;2023-12-29T05:57:31;7.93;;;1.90;;
16440;SDS011;8330;-33.858;151.184;2023-12-29T06:00:02;9.82;;;1.70;;
16440;SDS011;8330;-33.858;151.184;2023-12-29T06:02:35;8.65;;;1.70;;
16440;SDS011;8330;-33.858;151.184;2023-12-29T06:05:06;7.38;;;1.67;;
16440;SDS011;8330;-33.858;151.184;2023-12-29T06:07:37;7.28;;;1.60;;
16440;SDS011;8330;-33.858;151.184;2023-12-29T06:10:08;6.55;;;1.75;;
16440;SDS011;8330;-33.858;151.184;2023-12-29T06:12:41;8.63;;;1.80;;
16440;SDS011;8330;-33.858;151.184;2023-12-29T06:15:12;8.27;;;1.73;;
16440;SDS011;8330;-33.858;151.184;2023-12-29T06:17:43;8.77;;;1.65;;
16440;SDS011;8330;-33.858;151.184;2023-12-29T06:20:14;9.05;;;1.85;;
16440;SDS011;8330;-33.858;151.184;2023-12-29T06:22:46;6.97;;;1.88;;
16440;SDS011;8330;-33.858;151.184;2023-12-29T06:25:17;9.80;;;2.20;;
16440;SDS011;8330;-33.858;151.184;2023-12-29T06:27:50;10.52;;;1.80;;
16440;SDS011;8330;-33.858;151.184;2023-12-29T06:30:21;8.48;;;1.80;;
16440;SDS011;8330;-33.858;151.184;2023-12-29T06:32:52;8.18;;;1.70;;
16440;SDS011;8330;-33.858;151.184;2023-12-29T06:35:23;9.98;;;1.90;;
16440;SDS011;8330;-33.858;151.184;2023-12-29T06:37:53;8.80;;;2.00;;
16440;SDS011;8330;-33.858;151.184;2023-12-29T06:40:24;9.15;;;1.95;;
16440;SDS011;8330;-33.858;151.184;2023-12-29T06:42:57;7.70;;;2.00;;
16440;SDS011;8330;-33.858;151.184;2023-12-29T06:45:28;6.65;;;1.85;;
16440;SDS011;8330;-33.858;151.184;2023-12-29T06:47:59;7.95;;;2.00;;
16440;SDS011;8330;-33.858;151.184;2023-12-29T06:50:29;8.27;;;2.00;;
16440;SDS011;8330;-33.858;151.184;2023-12-29T06:53:01;8.10;;;2.00;;
16440;SDS011;8330;-33.858;151.184;2023-12-29T06:55:33;6.57;;;1.90;;
16440;SDS011;8330;-33.858;151.184;2023-12-29T06:58:05;9.88;;;2.03;;
16440;SDS011;8330;-33.858;151.184;2023-12-29T07:00:37;8.40;;;1.80;;
16440;SDS011;8330;-33.858;151.184;2023-12-29T07:03:10;7.60;;;2.03;;
16440;SDS011;8330;-33.858;151.184;2023-12-29T07:05:45;5.63;;;1.58;;
16440;SDS011;8330;-33.858;151.184;2023-12-29T07:08:16;8.68;;;2.20;;
16440;SDS011;8330;-33.858;151.184;2023-12-29T07:10:47;5.07;;;2.03;;
16440;SDS011;8330;-33.858;151.184;2023-12-29T07:13:21;6.63;;;1.63;;
16440;SDS011;8330;-33.858;151.184;2023-12-29T07:15:51;8.25;;;2.00;;
16440;SDS011;8330;-33.858;151.184;2023-12-29T07:18:22;7.55;;;2.40;;
16440;SDS011;8330;-33.858;151.184;2023-12-29T07:20:53;8.80;;;1.90;;
16440;SDS011;8330;-33.858;151.184;2023-12-29T07:23:24;7.95;;;1.98;;
16440;SDS011;8330;-33.858;151.184;2023-12-29T07:25:55;9.02;;;2.28;;
16440;SDS011;8330;-33.858;151.184;2023-12-29T07:28:27;6.72;;;1.55;;
16440;SDS011;8330;-33.858;151.184;2023-12-29T07:31:01;8.10;;;1.85;;
16440;SDS011;8330;-33.858;151.184;2023-12-29T07:33:35;10.02;;;2.13;;
16440;SDS011;8330;-33.858;151.184;2023-12-29T07:36:06;9.10;;;1.90;;
16440;SDS011;8330;-33.858;151.184;2023-12-29T07:38:37;7.75;;;2.17;;
16440;SDS011;8330;-33.858;151.184;2023-12-29T07:41:08;7.65;;;2.10;;
16440;SDS011;8330;-33.858;151.184;2023-12-29T07:43:41;9.05;;;2.22;;
16440;SDS011;8330;-33.858;151.184;2023-12-29T07:46:12;7.43;;;2.00;;
16440;SDS011;8330;-33.858;151.184;2023-12-29T07:48:52;7.47;;;1.98;;
16440;SDS011;8330;-33.858;151.184;2023-12-29T07:51:23;8.75;;;1.85;;
16440;SDS011;8330;-33.858;151.184;2023-12-29T07:53:54;5.22;;;1.63;;
16440;SDS011;8330;-33.858;151.184;2023-12-29T07:56:24;7.85;;;1.95;;
16440;SDS011;8330;-33.858;151.184;2023-12-29T07:58:57;6.20;;;1.95;;
16440;SDS011;8330;-33.858;151.184;2023-12-29T08:01:28;6.78;;;1.92;;
16440;SDS011;8330;-33.858;151.184;2023-12-29T08:03:59;7.40;;;1.77;;
16440;SDS011;8330;-33.858;151.184;2023-12-29T08:06:30;8.85;;;1.98;;
16440;SDS011;8330;-33.858;151.184;2023-12-29T08:09:03;8.32;;;2.10;;
16440;SDS011;8330;-33.858;151.184;2023-12-29T08:11:35;6.45;;;1.90;;
16440;SDS011;8330;-33.858;151.184;2023-12-29T08:14:08;6.22;;;1.70;;
16440;SDS011;8330;-33.858;151.184;2023-12-29T08:16:38;6.38;;;2.08;;
16440;SDS011;8330;-33.858;151.184;2023-12-29T08:19:09;8.00;;;1.70;;
16440;SDS011;8330;-33.858;151.184;2023-12-29T08:21:41;7.07;;;2.15;;
16440;SDS011;8330;-33.858;151.184;2023-12-29T08:24:12;8.30;;;1.98;;
16440;SDS011;8330;-33.858;151.184;2023-12-29T08:26:44;9.70;;;1.90;;
16440;SDS011;8330;-33.858;151.184;2023-12-29T08:29:17;9.48;;;2.03;;
16440;SDS011;8330;-33.858;151.184;2023-12-29T08:31:48;6.75;;;1.95;;
16440;SDS011;8330;-33.858;151.184;2023-12-29T08:34:19;10.52;;;2.53;;
16440;SDS011;8330;-33.858;151.184;2023-12-29T08:36:50;7.22;;;2.00;;
16440;SDS011;8330;-33.858;151.184;2023-12-29T08:39:20;7.68;;;2.17;;
16440;SDS011;8330;-33.858;151.184;2023-12-29T08:41:51;7.57;;;2.35;;
16440;SDS011;8330;-33.858;151.184;2023-12-29T08:44:24;8.27;;;2.00;;
16440;SDS011;8330;-33.858;151.184;2023-12-29T08:46:55;8.57;;;2.33;;
16440;SDS011;8330;-33.858;151.184;2023-12-29T08:49:26;6.10;;;1.83;;
16440;SDS011;8330;-33.858;151.184;2023-12-29T08:51:55;5.95;;;1.80;;
16440;SDS011;8330;-33.858;151.184;2023-12-29T08:54:26;8.35;;;2.15;;
16440;SDS011;8330;-33.858;151.184;2023-12-29T08:56:56;8.55;;;2.30;;
16440;SDS011;8330;-33.858;151.184;2023-12-29T08:59:29;7.38;;;2.13;;
16440;SDS011;8330;-33.858;151.184;2023-12-29T09:02:00;8.10;;;2.28;;
16440;SDS011;8330;-33.858;151.184;2023-12-29T09:04:31;8.98;;;3.40;;
16440;SDS011;8330;-33.858;151.184;2023-12-29T09:07:01;7.93;;;2.97;;
16440;SDS011;8330;-33.858;151.184;2023-12-29T09:09:33;14.35;;;7.80;;
16440;SDS011;8330;-33.858;151.184;2023-12-29T09:12:10;11.65;;;5.88;;
16440;SDS011;8330;-33.858;151.184;2023-12-29T09:14:43;7.38;;;3.60;;
16440;SDS011;8330;-33.858;151.184;2023-12-29T09:17:14;9.95;;;3.17;;
16440;SDS011;8330;-33.858;151.184;2023-12-29T09:19:44;8.60;;;2.63;;
16440;SDS011;8330;-33.858;151.184;2023-12-29T09:22:15;8.02;;;2.20;;
16440;SDS011;8330;-33.858;151.184;2023-12-29T09:24:46;8.20;;;2.15;;
16440;SDS011;8330;-33.858;151.184;2023-12-29T09:27:17;9.85;;;2.10;;
16440;SDS011;8330;-33.858;151.184;2023-12-29T09:29:50;9.77;;;2.22;;
16440;SDS011;8330;-33.858;151.184;2023-12-29T09:32:20;8.55;;;2.30;;
16440;SDS011;8330;-33.858;151.184;2023-12-29T09:34:51;7.78;;;2.20;;
16440;SDS011;8330;-33.858;151.184;2023-12-29T09:37:22;7.88;;;2.03;;
16440;SDS011;8330;-33.858;151.184;2023-12-29T09:39:53;8.52;;;2.53;;
16440;SDS011;8330;-33.858;151.184;2023-12-29T09:42:24;7.05;;;2.15;;
16440;SDS011;8330;-33.858;151.184;2023-12-29T09:44:59;5.63;;;2.05;;
16440;SDS011;8330;-33.858;151.184;2023-12-29T09:47:35;6.88;;;1.90;;
16440;SDS011;8330;-33.858;151.184;2023-12-29T09:50:09;7.82;;;2.58;;
16440;SDS011;8330;-33.858;151.184;2023-12-29T09:52:42;6.05;;;2.10;;
16440;SDS011;8330;-33.858;151.184;2023-12-29T09:55:16;7.85;;;4.07;;
16440;SDS011;8330;-33.858;151.184;2023-12-29T09:57:47;7.70;;;3.33;;
16440;SDS011;8330;-33.858;151.184;2023-12-29T10:00:20;7.55;;;2.20;;
16440;SDS011;8330;-33.858;151.184;2023-12-29T10:02:51;7.47;;;1.98;;
16440;SDS011;8330;-33.858;151.184;2023-12-29T10:05:23;5.03;;;1.90;;
16440;SDS011;8330;-33.858;151.184;2023-12-29T10:07:54;4.10;;;1.85;;
16440;SDS011;8330;-33.858;151.184;2023-12-29T10:10:29;7.07;;;2.10;;
16440;SDS011;8330;-33.858;151.184;2023-12-29T10:13:02;4.28;;;1.77;;
16440;SDS011;8330;-33.858;151.184;2023-12-29T10:15:42;6.68;;;2.10;;
16440;SDS011;8330;-33.858;151.184;2023-12-29T10:18:22;4.18;;;1.60;;
16440;SDS011;8330;-33.858;151.184;2023-12-29T10:20:59;2.28;;;1.27;;
16440;SDS011;8330;-33.858;151.184;2023-12-29T10:23:38;1.70;;;0.98;;
16440;SDS011;8330;-33.858;151.184;2023-12-29T10:26:12;2.17;;;0.93;;
16440;SDS011;8330;-33.858;151.184;2023-12-29T10:28:43;2.03;;;0.75;;
16440;SDS011;8330;-33.858;151.184;2023-12-29T10:31:17;1.33;;;0.60;;
16440;SDS011;8330;-33.858;151.184;2023-12-29T10:33:48;1.52;;;0.63;;
16440;SDS011;8330;-33.858;151.184;2023-12-29T10:36:20;1.25;;;0.50;;
16440;SDS011;8330;-33.858;151.184;2023-12-29T10:38:50;1.92;;;0.70;;
16440;SDS011;8330;-33.858;151.184;2023-12-29T10:41:36;1.58;;;0.50;;
16440;SDS011;8330;-33.858;151.184;2023-12-29T10:44:07;0.57;;;0.55;;
16440;SDS011;8330;-33.858;151.184;2023-12-29T10:46:40;0.32;;;0.30;;
16440;SDS011;8330;-33.858;151.184;2023-12-29T10:49:11;0.70;;;0.40;;
16440;SDS011;8330;-33.858;151.184;2023-12-29T10:51:42;0.43;;;0.40;;
16440;SDS011;8330;-33.858;151.184;2023-12-29T10:54:19;0.73;;;0.55;;
16440;SDS011;8330;-33.858;151.184;2023-12-29T10:57:00;0.80;;;0.80;;
16440;SDS011;8330;-33.858;151.184;2023-12-29T10:59:31;1.05;;;0.60;;
16440;SDS011;8330;-33.858;151.184;2023-12-29T11:02:04;3.00;;;0.60;;
16440;SDS011;8330;-33.858;151.184;2023-12-29T11:04:40;0.60;;;0.55;;
16440;SDS011;8330;-33.858;151.184;2023-12-29T11:07:12;1.00;;;0.50;;
16440;SDS011;8330;-33.858;151.184;2023-12-29T11:09:43;0.60;;;0.40;;
16440;SDS011;8330;-33.858;151.184;2023-12-29T11:12:14;0.70;;;0.50;;
16440;SDS011;8330;-33.858;151.184;2023-12-29T11:14:45;1.85;;;0.47;;
16440;SDS011;8330;-33.858;151.184;2023-12-29T11:17:18;0.40;;;0.40;;
16440;SDS011;8330;-33.858;151.184;2023-12-29T11:19:50;0.47;;;0.40;;
16440;SDS011;8330;-33.858;151.184;2023-12-29T11:22:21;0.95;;;0.60;;
16440;SDS011;8330;-33.858;151.184;2023-12-29T11:24:53;1.27;;;0.75;;
16440;SDS011;8330;-33.858;151.184;2023-12-29T11:27:26;1.20;;;0.63;;
16440;SDS011;8330;-33.858;151.184;2023-12-29T11:29:58;1.20;;;0.70;;
16440;SDS011;8330;-33.858;151.184;2023-12-29T11:32:34;0.82;;;0.55;;
16440;SDS011;8330;-33.858;151.184;2023-12-29T11:35:12;1.33;;;0.70;;
16440;SDS011;8330;-33.858;151.184;2023-12-29T11:37:55;1.52;;;0.70;;
16440;SDS011;8330;-33.858;151.184;2023-12-29T11:40:36;1.30;;;0.70;;
16440;SDS011;8330;-33.858;151.184;2023-12-29T11:43:12;0.90;;;0.70;;
16440;SDS011;8330;-33.858;151.184;2023-12-29T11:45:46;1.27;;;0.80;;
16440;SDS011;8330;-33.858;151.184;2023-12-29T11:51:30;1.33;;;0.68;;
16440;SDS011;8330;-33.858;151.184;2023-12-29T11:54:02;2.10;;;1.00;;
16440;SDS011;8330;-33.858;151.184;2023-12-29T11:56:34;1.27;;;0.70;;
16440;SDS011;8330;-33.858;151.184;2023-12-29T11:59:13;1.00;;;0.90;;
16440;SDS011;8330;-33.858;151.184;2023-12-29T12:01:47;0.80;;;0.80;;
16440;SDS011;8330;-33.858;151.184;2023-12-29T12:04:35;0.98;;;0.70;;
16440;SDS011;8330;-33.858;151.184;2023-12-29T12:07:09;0.70;;;0.70;;
16440;SDS011;8330;-33.858;151.184;2023-12-29T12:09:42;0.77;;;0.75;;
16440;SDS011;8330;-33.858;151.184;2023-12-29T12:12:15;1.20;;;0.77;;
16440;SDS011;8330;-33.858;151.184;2023-12-29T12:18:04;0.50;;;0.50;;
16440;SDS011;8330;-33.858;151.184;2023-12-29T12:20:35;3.05;;;0.70;;
16440;SDS011;8330;-33.858;151.184;2023-12-29T12:23:10;1.55;;;0.80;;
16440;SDS011;8330;-33.858;151.184;2023-12-29T12:25:47;2.13;;;0.70;;
16440;SDS011;8330;-33.858;151.184;2023-12-29T12:28:26;2.88;;;0.70;;
16440;SDS011;8330;-33.858;151.184;2023-12-29T12:31:04;1.25;;;0.82;;
16440;SDS011;8330;-33.858;151.184;2023-12-29T12:33:36;2.30;;;0.80;;
16440;SDS011;8330;-33.858;151.184;2023-12-29T12:36:07;2.35;;;0.80;;
16440;SDS011;8330;-33.858;151.184;2023-12-29T12:38:39;0.88;;;0.80;;
16440;SDS011;8330;-33.858;151.184;2023-12-29T12:41:20;1.10;;;0.75;;
16440;SDS011;8330;-33.858;151.184;2023-12-29T12:43:54;2.67;;;0.70;;
16440;SDS011;8330;-33.858;151.184;2023-12-29T12:46:34;1.70;;;0.63;;
16440;SDS011;8330;-33.858;151.184;2023-12-29T12:49:08;1.23;;;0.60;;
16440;SDS011;8330;-33.858;151.184;2023-12-29T12:51:40;1.70;;;0.80;;
16440;SDS011;8330;-33.858;151.184;2023-12-29T12:54:13;1.08;;;0.73;;
16440;SDS011;8330;-33.858;151.184;2023-12-29T12:56:48;0.57;;;0.57;;
16440;SDS011;8330;-33.858;151.184;2023-12-29T12:59:20;1.60;;;0.63;;
16440;SDS011;8330;-33.858;151.184;2023-12-29T13:01:51;1.17;;;0.77;;
16440;SDS011;8330;-33.858;151.184;2023-12-29T13:04:22;1.35;;;0.90;;
16440;SDS011;8330;-33.858;151.184;2023-12-29T13:06:53;1.38;;;0.70;;
16440;SDS011;8330;-33.858;151.184;2023-12-29T13:09:26;1.23;;;0.60;;
16440;SDS011;8330;-33.858;151.184;2023-12-29T13:12:10;1.25;;;0.90;;
16440;SDS011;8330;-33.858;151.184;2023-12-29T13:14:42;0.82;;;0.63;;
16440;SDS011;8330;-33.858;151.184;2023-12-29T13:17:14;1.10;;;0.70;;
16440;SDS011;8330;-33.858;151.184;2023-12-29T13:19:47;2.20;;;0.68;;
16440;SDS011;8330;-33.858;151.184;2023-12-29T13:22:26;2.20;;;0.82;;
16440;SDS011;8330;-33.858;151.184;2023-12-29T13:24:59;0.77;;;0.57;;
16440;SDS011;8330;-33.858;151.184;2023-12-29T13:27:34;1.55;;;0.88;;
16440;SDS011;8330;-33.858;151.184;2023-12-29T13:30:07;1.08;;;0.70;;
16440;SDS011;8330;-33.858;151.184;2023-12-29T13:32:41;4.38;;;1.10;;
16440;SDS011;8330;-33.858;151.184;2023-12-29T13:35:16;2.05;;;0.90;;
16440;SDS011;8330;-33.858;151.184;2023-12-29T13:37:51;1.20;;;0.90;;
16440;SDS011;8330;-33.858;151.184;2023-12-29T13:40:35;2.08;;;1.00;;
16440;SDS011;8330;-33.858;151.184;2023-12-29T13:43:08;2.15;;;0.98;;
16440;SDS011;8330;-33.858;151.184;2023-12-29T13:45:42;3.03;;;1.17;;
16440;SDS011;8330;-33.858;151.184;2023-12-29T13:48:13;2.05;;;0.93;;
16440;SDS011;8330;-33.858;151.184;2023-12-29T13:50:45;3.60;;;1.75;;
16440;SDS011;8330;-33.858;151.184;2023-12-29T13:53:17;2.65;;;1.20;;
16440;SDS011;8330;-33.858;151.184;2023-12-29T13:55:51;5.80;;;1.63;;
16440;SDS011;8330;-33.858;151.184;2023-12-29T13:58:22;3.28;;;1.20;;
16440;SDS011;8330;-33.858;151.184;2023-12-29T14:00:55;2.40;;;1.30;;
16440;SDS011;8330;-33.858;151.184;2023-12-29T14:03:31;4.22;;;1.42;;
16440;SDS011;8330;-33.858;151.184;2023-12-29T14:06:07;3.35;;;1.50;;
16440;SDS011;8330;-33.858;151.184;2023-12-29T14:08:40;2.90;;;1.50;;
16440;SDS011;8330;-33.858;151.184;2023-12-29T14:11:16;3.40;;;1.38;;
16440;SDS011;8330;-33.858;151.184;2023-12-29T14:13:47;4.55;;;1.80;;
16440;SDS011;8330;-33.858;151.184;2023-12-29T14:16:17;3.15;;;1.48;;
16440;SDS011;8330;-33.858;151.184;2023-12-29T14:18:52;6.22;;;1.75;;
16440;SDS011;8330;-33.858;151.184;2023-12-29T14:21:24;4.97;;;1.60;;
16440;SDS011;8330;-33.858;151.184;2023-12-29T14:24:00;2.97;;;1.38;;
16440;SDS011;8330;-33.858;151.184;2023-12-29T14:26:40;2.92;;;1.40;;
16440;SDS011;8330;-33.858;151.184;2023-12-29T14:29:13;4.78;;;1.70;;
16440;SDS011;8330;-33.858;151.184;2023-12-29T14:31:44;3.35;;;1.65;;
16440;SDS011;8330;-33.858;151.184;2023-12-29T14:34:17;2.85;;;1.35;;
16440;SDS011;8330;-33.858;151.184;2023-12-29T14:36:48;3.33;;;1.52;;
16440;SDS011;8330;-33.858;151.184;2023-12-29T14:39:19;3.65;;;1.52;;
16440;SDS011;8330;-33.858;151.184;2023-12-29T14:41:52;3.42;;;1.50;;
16440;SDS011;8330;-33.858;151.184;2023-12-29T14:44:23;3.35;;;1.42;;
16440;SDS011;8330;-33.858;151.184;2023-12-29T14:46:54;6.75;;;1.60;;
16440;SDS011;8330;-33.858;151.184;2023-12-29T14:49:25;3.63;;;1.38;;
16440;SDS011;8330;-33.858;151.184;2023-12-29T14:51:56;5.05;;;1.48;;
16440;SDS011;8330;-33.858;151.184;2023-12-29T14:54:27;2.78;;;1.50;;
16440;SDS011;8330;-33.858;151.184;2023-12-29T14:56:59;4.88;;;1.60;;